sensor_id;sensor_type;location;lat;lon;timestamp;pressure;altitude;pressure_sealevel;temperature;humidity
21086;BME280;34247;50.064;19.970;2023-04-21T00:00:51;99441.50;;;12.42;82.99
21086;BME280;34247;50.064;19.970;2023-04-21T00:01:58;99440.53;;;12.43;82.87
21086;BME280;34247;50.064;19.970;2023-04-21T00:03:03;99447.22;;;12.49;82.34
21086;BME280;34247;50.064;19.970;2023-04-21T00:04:08;99440.19;;;12.48;82.10
21086;BME280;34247;50.064;19.970;2023-04-21T00:05:15;99439.00;;;12.52;81.96
21086;BME280;34247;50.064;19.970;2023-04-21T00:06:20;99438.03;;;12.53;81.65
21086;BME280;34247;50.064;19.970;2023-04-21T00:07:39;99437.19;;;12.52;81.66
21086;BME280;34247;50.064;19.970;2023-04-21T00:08:46;99434.63;;;12.51;81.65
21086;BME280;34247;50.064;19.970;2023-04-21T00:09:52;99435.72;;;12.48;81.76
21086;BME280;34247;50.064;19.970;2023-04-21T00:10:58;99431.47;;;12.46;81.85
21086;BME280;34247;50.064;19.970;2023-04-21T00:12:06;99435.00;;;12.46;81.86
21086;BME280;34247;50.064;19.970;2023-04-21T00:13:13;99435.31;;;12.41;82.30
21086;BME280;34247;50.064;19.970;2023-04-21T00:14:19;99439.44;;;12.46;81.85
21086;BME280;34247;50.064;19.970;2023-04-21T00:15:29;99437.88;;;12.43;82.21
21086;BME280;34247;50.064;19.970;2023-04-21T00:16:34;99432.44;;;12.45;81.92
21086;BME280;34247;50.064;19.970;2023-04-21T00:17:43;99436.28;;;12.40;82.20
21086;BME280;34247;50.064;19.970;2023-04-21T00:18:55;99437.34;;;12.38;82.81
21086;BME280;34247;50.064;19.970;2023-04-21T00:20:16;99433.63;;;12.40;82.86
21086;BME280;34247;50.064;19.970;2023-04-21T00:21:21;99434.47;;;12.41;82.72
21086;BME280;34247;50.064;19.970;2023-04-21T00:22:25;99431.09;;;12.39;83.23
21086;BME280;34247;50.064;19.970;2023-04-21T00:23:40;99431.19;;;12.37;83.21
21086;BME280;34247;50.064;19.970;2023-04-21T00:24:46;99434.06;;;12.34;83.38
21086;BME280;34247;50.064;19.970;2023-04-21T00:25:51;99430.44;;;12.35;83.32
21086;BME280;34247;50.064;19.970;2023-04-21T00:27:00;99431.19;;;12.37;83.03
21086;BME280;34247;50.064;19.970;2023-04-21T00:28:08;99426.59;;;12.39;82.82
21086;BME280;34247;50.064;19.970;2023-04-21T00:29:16;99424.78;;;12.40;82.92
21086;BME280;34247;50.064;19.970;2023-04-21T00:30:22;99422.88;;;12.42;82.80
21086;BME280;34247;50.064;19.970;2023-04-21T00:31:32;99426.50;;;12.41;83.00
21086;BME280;34247;50.064;19.970;2023-04-21T00:32:37;99414.88;;;12.42;82.78
21086;BME280;34247;50.064;19.970;2023-04-21T00:33:42;99418.63;;;12.39;82.79
21086;BME280;34247;50.064;19.970;2023-04-21T00:34:50;99428.50;;;12.37;83.34
21086;BME280;34247;50.064;19.970;2023-04-21T00:35:55;99414.25;;;12.38;83.14
21086;BME280;34247;50.064;19.970;2023-04-21T00:37:02;99424.03;;;12.38;82.92
21086;BME280;34247;50.064;19.970;2023-04-21T00:38:07;99424.16;;;12.36;83.13
21086;BME280;34247;50.064;19.970;2023-04-21T00:39:15;99422.25;;;12.38;82.88
21086;BME280;34247;50.064;19.970;2023-04-21T00:40:20;99422.34;;;12.37;82.83
21086;BME280;34247;50.064;19.970;2023-04-21T00:41:32;99421.84;;;12.32;83.13
21086;BME280;34247;50.064;19.970;2023-04-21T00:42:38;99425.34;;;12.32;83.13
21086;BME280;34247;50.064;19.970;2023-04-21T00:44:06;99426.09;;;12.34;83.26
21086;BME280;34247;50.064;19.970;2023-04-21T00:45:11;99419.19;;;12.32;83.57
21086;BME280;34247;50.064;19.970;2023-04-21T00:46:15;99420.25;;;12.29;83.27
21086;BME280;34247;50.064;19.970;2023-04-21T00:47:30;99417.59;;;12.29;83.63
21086;BME280;34247;50.064;19.970;2023-04-21T00:48:35;99420.25;;;12.29;83.77
21086;BME280;34247;50.064;19.970;2023-04-21T00:49:43;99419.19;;;12.32;83.63
21086;BME280;34247;50.064;19.970;2023-04-21T00:50:47;99424.50;;;12.32;83.23
21086;BME280;34247;50.064;19.970;2023-04-21T00:51:54;99416.84;;;12.27;83.61
21086;BME280;34247;50.064;19.970;2023-04-21T00:53:16;99426.41;;;12.30;83.61
21086;BME280;34247;50.064;19.970;2023-04-21T00:54:24;99424.84;;;12.27;83.84
21086;BME280;34247;50.064;19.970;2023-04-21T00:55:33;99431.72;;;12.30;83.73
21086;BME280;34247;50.064;19.970;2023-04-21T00:56:41;99421.00;;;12.31;83.66
21086;BME280;34247;50.064;19.970;2023-04-21T00:57:51;99414.72;;;12.32;83.44
21086;BME280;34247;50.064;19.970;2023-04-21T00:59:05;99419.41;;;12.29;83.61
21086;BME280;34247;50.064;19.970;2023-04-21T01:00:12;99418.78;;;12.25;83.98
21086;BME280;34247;50.064;19.970;2023-04-21T01:01:28;99421.53;;;12.24;83.88
21086;BME280;34247;50.064;19.970;2023-04-21T01:02:38;99420.47;;;12.26;83.84
21086;BME280;34247;50.064;19.970;2023-04-21T01:03:43;99419.00;;;12.22;83.96
21086;BME280;34247;50.064;19.970;2023-04-21T01:05:15;99417.41;;;12.20;84.11
21086;BME280;34247;50.064;19.970;2023-04-21T01:06:30;99420.75;;;12.10;84.71
21086;BME280;34247;50.064;19.970;2023-04-21T01:07:41;99415.31;;;12.12;84.64
21086;BME280;34247;50.064;19.970;2023-04-21T01:08:51;99415.31;;;12.12;84.42
21086;BME280;34247;50.064;19.970;2023-04-21T01:09:59;99416.88;;;12.14;84.11
21086;BME280;34247;50.064;19.970;2023-04-21T01:11:13;99416.28;;;12.11;84.61
21086;BME280;34247;50.064;19.970;2023-04-21T01:12:19;99415.44;;;12.10;84.80
21086;BME280;34247;50.064;19.970;2023-04-21T01:13:23;99417.13;;;12.11;84.31
21086;BME280;34247;50.064;19.970;2023-04-21T01:14:28;99416.28;;;12.11;84.25
21086;BME280;34247;50.064;19.970;2023-04-21T01:15:32;99419.03;;;12.09;84.68
21086;BME280;34247;50.064;19.970;2023-04-21T01:16:36;99412.84;;;12.09;84.52
21086;BME280;34247;50.064;19.970;2023-04-21T01:17:42;99415.63;;;12.07;84.70
21086;BME280;34247;50.064;19.970;2023-04-21T01:18:46;99415.63;;;12.07;84.60
21086;BME280;34247;50.064;19.970;2023-04-21T01:19:52;99419.03;;;12.09;84.19
21086;BME280;34247;50.064;19.970;2023-04-21T01:21:01;99415.75;;;12.06;84.55
21086;BME280;34247;50.064;19.970;2023-04-21T01:22:09;99419.13;;;12.08;84.37
21086;BME280;34247;50.064;19.970;2023-04-21T01:23:14;99418.19;;;12.09;84.25
21086;BME280;34247;50.064;19.970;2023-04-21T01:24:19;99420.94;;;12.07;84.45
21086;BME280;34247;50.064;19.970;2023-04-21T01:25:24;99413.22;;;12.04;84.30
21086;BME280;34247;50.064;19.970;2023-04-21T01:26:33;99411.84;;;11.99;84.46
21086;BME280;34247;50.064;19.970;2023-04-21T01:27:37;99417.38;;;11.96;84.84
21086;BME280;34247;50.064;19.970;2023-04-21T01:28:40;99411.94;;;11.97;84.88
21086;BME280;34247;50.064;19.970;2023-04-21T01:29:49;99417.38;;;11.96;85.36
21086;BME280;34247;50.064;19.970;2023-04-21T01:30:54;99417.38;;;11.96;85.35
21086;BME280;34247;50.064;19.970;2023-04-21T01:32:09;99419.06;;;11.97;85.20
21086;BME280;34247;50.064;19.970;2023-04-21T01:33:14;99414.59;;;11.97;84.82
21086;BME280;34247;50.064;19.970;2023-04-21T01:34:18;99412.91;;;11.96;84.71
21086;BME280;34247;50.064;19.970;2023-04-21T01:35:22;99417.38;;;11.96;84.90
21086;BME280;34247;50.064;19.970;2023-04-21T01:36:26;99419.06;;;11.97;84.84
21086;BME280;34247;50.064;19.970;2023-04-21T01:37:32;99418.00;;;11.99;84.39
21086;BME280;34247;50.064;19.970;2023-04-21T01:38:41;99414.50;;;11.99;84.22
21086;BME280;34247;50.064;19.970;2023-04-21T01:39:50;99412.25;;;11.93;84.62
21086;BME280;34247;50.064;19.970;2023-04-21T01:40:57;99422.06;;;11.92;84.93
21086;BME280;34247;50.064;19.970;2023-04-21T01:42:01;99411.41;;;11.92;84.53
21086;BME280;34247;50.064;19.970;2023-04-21T01:43:04;99415.78;;;11.93;84.32
21086;BME280;34247;50.064;19.970;2023-04-21T01:44:08;99414.94;;;11.93;84.50
21086;BME280;34247;50.064;19.970;2023-04-21T01:45:15;99410.56;;;11.92;84.05
21086;BME280;34247;50.064;19.970;2023-04-21T01:46:20;99410.16;;;11.85;84.55
21086;BME280;34247;50.064;19.970;2023-04-21T01:47:24;99414.41;;;11.87;84.37
21086;BME280;34247;50.064;19.970;2023-04-21T01:48:32;99416.56;;;11.82;84.70
21086;BME280;34247;50.064;19.970;2023-04-21T01:49:36;99412.19;;;11.81;84.85
21086;BME280;34247;50.064;19.970;2023-04-21T01:50:40;99419.34;;;11.81;84.77
21086;BME280;34247;50.064;19.970;2023-04-21T01:51:44;99413.13;;;11.80;84.57
21086;BME280;34247;50.064;19.970;2023-04-21T01:52:48;99412.19;;;11.81;84.84
21086;BME280;34247;50.064;19.970;2023-04-21T01:53:53;99411.41;;;11.79;84.68
21086;BME280;34247;50.064;19.970;2023-04-21T01:54:56;99419.72;;;11.75;85.23
21086;BME280;34247;50.064;19.970;2023-04-21T01:56:00;99418.66;;;11.77;85.17
21086;BME280;34247;50.064;19.970;2023-04-21T01:57:05;99408.97;;;11.76;85.04
21086;BME280;34247;50.064;19.970;2023-04-21T01:58:10;99412.38;;;11.78;84.75
21086;BME280;34247;50.064;19.970;2023-04-21T01:59:14;99409.09;;;11.75;85.25
21086;BME280;34247;50.064;19.970;2023-04-21T02:00:18;99414.97;;;11.67;86.00
21086;BME280;34247;50.064;19.970;2023-04-21T02:01:25;99409.84;;;11.64;86.37
21086;BME280;34247;50.064;19.970;2023-04-21T02:02:34;99416.84;;;11.65;86.25
21086;BME280;34247;50.064;19.970;2023-04-21T02:03:38;99419.31;;;11.68;86.19
21086;BME280;34247;50.064;19.970;2023-04-21T02:04:44;99421.75;;;11.71;85.85
21086;BME280;34247;50.064;19.970;2023-04-21T02:05:58;99425.25;;;11.72;85.74
21086;BME280;34247;50.064;19.970;2023-04-21T02:07:02;99426.22;;;11.71;86.01
21086;BME280;34247;50.064;19.970;2023-04-21T02:08:13;99425.16;;;11.73;85.54
21086;BME280;34247;50.064;19.970;2023-04-21T02:09:19;99414.41;;;11.75;85.64
21086;BME280;34247;50.064;19.970;2023-04-21T02:10:27;99419.72;;;11.75;85.42
21086;BME280;34247;50.064;19.970;2023-04-21T02:11:34;99422.50;;;11.73;85.47
21086;BME280;34247;50.064;19.970;2023-04-21T02:12:42;99423.34;;;11.74;85.42
21086;BME280;34247;50.064;19.970;2023-04-21T02:13:55;99419.09;;;11.71;85.88
21086;BME280;34247;50.064;19.970;2023-04-21T02:14:58;99425.16;;;11.73;85.51
21086;BME280;34247;50.064;19.970;2023-04-21T02:16:04;99420.03;;;11.70;85.60
21086;BME280;34247;50.064;19.970;2023-04-21T02:17:24;99420.03;;;11.70;85.45
21086;BME280;34247;50.064;19.970;2023-04-21T02:18:40;99425.25;;;11.72;85.50
21086;BME280;34247;50.064;19.970;2023-04-21T02:19:46;99426.31;;;11.69;85.63
21086;BME280;34247;50.064;19.970;2023-04-21T02:21:11;99428.34;;;11.66;86.22
21086;BME280;34247;50.064;19.970;2023-04-21T02:22:36;99430.25;;;11.64;85.93
21086;BME280;34247;50.064;19.970;2023-04-21T02:23:43;99434.72;;;11.63;86.22
21086;BME280;34247;50.064;19.970;2023-04-21T02:24:49;99427.84;;;11.60;86.16
21086;BME280;34247;50.064;19.970;2023-04-21T02:26:04;99428.16;;;11.56;86.76
21086;BME280;34247;50.064;19.970;2023-04-21T02:27:13;99430.81;;;11.56;86.85
21086;BME280;34247;50.064;19.970;2023-04-21T02:28:17;99430.19;;;11.52;86.78
21086;BME280;34247;50.064;19.970;2023-04-21T02:29:21;99430.81;;;11.56;86.63
21086;BME280;34247;50.064;19.970;2023-04-21T02:30:27;99430.19;;;11.52;86.86
21086;BME280;34247;50.064;19.970;2023-04-21T02:31:37;99432.00;;;11.52;86.71
21086;BME280;34247;50.064;19.970;2023-04-21T02:33:00;99430.19;;;11.52;86.82
21086;BME280;34247;50.064;19.970;2023-04-21T02:34:04;99427.53;;;11.52;86.91
21086;BME280;34247;50.064;19.970;2023-04-21T02:35:11;99434.66;;;11.52;87.04
21086;BME280;34247;50.064;19.970;2023-04-21T02:36:22;99422.50;;;11.48;86.72
21086;BME280;34247;50.064;19.970;2023-04-21T02:37:31;99428.91;;;11.45;87.20
21086;BME280;34247;50.064;19.970;2023-04-21T02:38:44;99430.06;;;11.41;87.42
21086;BME280;34247;50.064;19.970;2023-04-21T02:39:48;99426.78;;;11.38;87.67
21086;BME280;34247;50.064;19.970;2023-04-21T02:40:55;99426.84;;;11.36;87.75
21086;BME280;34247;50.064;19.970;2023-04-21T02:42:00;99427.72;;;11.37;87.61
21086;BME280;34247;50.064;19.970;2023-04-21T02:43:05;99420.63;;;11.37;87.41
21086;BME280;34247;50.064;19.970;2023-04-21T02:44:09;99428.78;;;11.34;87.58
21086;BME280;34247;50.064;19.970;2023-04-21T02:45:14;99436.66;;;11.36;87.05
21086;BME280;34247;50.064;19.970;2023-04-21T02:46:24;99435.91;;;11.33;87.12
21086;BME280;34247;50.064;19.970;2023-04-21T02:47:40;99430.91;;;11.29;87.39
21086;BME280;34247;50.064;19.970;2023-04-21T02:48:46;99427.41;;;11.28;87.55
21086;BME280;34247;50.064;19.970;2023-04-21T02:49:52;99431.00;;;11.27;87.52
21086;BME280;34247;50.064;19.970;2023-04-21T02:50:59;99433.88;;;11.24;87.92
21086;BME280;34247;50.064;19.970;2023-04-21T02:52:05;99436.44;;;11.26;87.76
21086;BME280;34247;50.064;19.970;2023-04-21T02:53:15;99433.34;;;11.19;88.07
21086;BME280;34247;50.064;19.970;2023-04-21T02:54:19;99432.72;;;11.16;88.52
21086;BME280;34247;50.064;19.970;2023-04-21T02:55:26;99431.31;;;11.10;88.75
21086;BME280;34247;50.064;19.970;2023-04-21T02:56:31;99429.50;;;11.11;88.92
21086;BME280;34247;50.064;19.970;2023-04-21T02:57:38;99424.94;;;11.13;88.77
21086;BME280;34247;50.064;19.970;2023-04-21T02:58:42;99432.91;;;11.13;88.71
21086;BME280;34247;50.064;19.970;2023-04-21T02:59:48;99430.25;;;11.13;88.79
21086;BME280;34247;50.064;19.970;2023-04-21T03:00:52;99431.00;;;11.15;88.20
21086;BME280;34247;50.064;19.970;2023-04-21T03:01:57;99434.50;;;11.15;88.19
21086;BME280;34247;50.064;19.970;2023-04-21T03:03:04;99426.84;;;11.11;88.53
21086;BME280;34247;50.064;19.970;2023-04-21T03:04:10;99429.63;;;11.09;88.70
21086;BME280;34247;50.064;19.970;2023-04-21T03:05:20;99429.09;;;11.04;88.93
21086;BME280;34247;50.064;19.970;2023-04-21T03:06:38;99431.00;;;11.02;89.13
21086;BME280;34247;50.064;19.970;2023-04-21T03:07:44;99436.38;;;11.00;89.02
21086;BME280;34247;50.064;19.970;2023-04-21T03:09:00;99431.97;;;11.01;88.79
21086;BME280;34247;50.064;19.970;2023-04-21T03:10:09;99428.34;;;11.02;88.96
21086;BME280;34247;50.064;19.970;2023-04-21T03:11:13;99432.88;;;11.00;88.92
21086;BME280;34247;50.064;19.970;2023-04-21T03:12:19;99432.88;;;11.00;88.67
21086;BME280;34247;50.064;19.970;2023-04-21T03:13:24;99434.81;;;10.98;88.64
21086;BME280;34247;50.064;19.970;2023-04-21T03:14:29;99434.81;;;10.98;88.91
21086;BME280;34247;50.064;19.970;2023-04-21T03:15:33;99434.06;;;10.96;88.65
21086;BME280;34247;50.064;19.970;2023-04-21T03:16:40;99429.72;;;10.95;88.77
21086;BME280;34247;50.064;19.970;2023-04-21T03:17:46;99428.00;;;10.94;88.84
21086;BME280;34247;50.064;19.970;2023-04-21T03:18:51;99437.88;;;10.92;88.75
21086;BME280;34247;50.064;19.970;2023-04-21T03:20:01;99427.47;;;10.89;88.69
21086;BME280;34247;50.064;19.970;2023-04-21T03:21:09;99432.44;;;10.81;89.64
21086;BME280;34247;50.064;19.970;2023-04-21T03:22:22;99429.97;;;10.77;89.38
21086;BME280;34247;50.064;19.970;2023-04-21T03:23:26;99427.13;;;10.81;89.61
21086;BME280;34247;50.064;19.970;2023-04-21T03:24:30;99430.09;;;10.76;89.85
21086;BME280;34247;50.064;19.970;2023-04-21T03:25:37;99427.22;;;10.79;89.43
21086;BME280;34247;50.064;19.970;2023-04-21T03:26:45;99439.56;;;10.80;89.67
21086;BME280;34247;50.064;19.970;2023-04-21T03:27:53;99430.94;;;10.76;89.75
21086;BME280;34247;50.064;19.970;2023-04-21T03:28:57;99430.94;;;10.76;89.53
21086;BME280;34247;50.064;19.970;2023-04-21T03:30:02;99432.09;;;10.72;89.65
21086;BME280;34247;50.064;19.970;2023-04-21T03:31:08;99429.63;;;10.69;89.83
21086;BME280;34247;50.064;19.970;2023-04-21T03:32:12;99432.41;;;10.68;90.01
21086;BME280;34247;50.064;19.970;2023-04-21T03:33:17;99434.94;;;10.69;89.73
21086;BME280;34247;50.064;19.970;2023-04-21T03:34:21;99430.47;;;10.70;89.49
21086;BME280;34247;50.064;19.970;2023-04-21T03:35:24;99431.56;;;10.67;89.67
21086;BME280;34247;50.064;19.970;2023-04-21T03:36:28;99434.72;;;10.60;90.18
21086;BME280;34247;50.064;19.970;2023-04-21T03:37:32;99428.56;;;10.59;90.45
21086;BME280;34247;50.064;19.970;2023-04-21T03:38:36;99422.41;;;10.59;90.18
21086;BME280;34247;50.064;19.970;2023-04-21T03:39:39;99427.78;;;10.57;90.42
21086;BME280;34247;50.064;19.970;2023-04-21T03:40:43;99427.03;;;10.55;90.56
21086;BME280;34247;50.064;19.970;2023-04-21T03:41:47;99435.13;;;10.54;90.41
21086;BME280;34247;50.064;19.970;2023-04-21T03:42:51;99430.94;;;10.49;90.69
21086;BME280;34247;50.064;19.970;2023-04-21T03:43:55;99426.81;;;10.45;90.73
21086;BME280;34247;50.064;19.970;2023-04-21T03:45:03;99432.97;;;10.46;90.76
21086;BME280;34247;50.064;19.970;2023-04-21T03:46:20;99428.72;;;10.43;91.06
21086;BME280;34247;50.064;19.970;2023-04-21T03:47:25;99436.97;;;10.39;91.42
21086;BME280;34247;50.064;19.970;2023-04-21T03:48:29;99434.22;;;10.40;91.52
21086;BME280;34247;50.064;19.970;2023-04-21T03:49:39;99436.13;;;10.38;91.84
21086;BME280;34247;50.064;19.970;2023-04-21T03:50:49;99437.19;;;10.36;92.45
21086;BME280;34247;50.064;19.970;2023-04-21T03:51:53;99440.47;;;10.39;91.81
21086;BME280;34247;50.064;19.970;2023-04-21T03:53:03;99444.19;;;10.37;92.23
21086;BME280;34247;50.064;19.970;2023-04-21T03:54:08;99437.34;;;10.33;92.63
21086;BME280;34247;50.064;19.970;2023-04-21T03:55:14;99443.50;;;10.33;92.42
21086;BME280;34247;50.064;19.970;2023-04-21T03:56:20;99442.09;;;10.28;93.49
21086;BME280;34247;50.064;19.970;2023-04-21T03:57:28;99443.63;;;10.32;93.33
21086;BME280;34247;50.064;19.970;2023-04-21T03:58:37;99444.56;;;10.31;93.10
21086;BME280;34247;50.064;19.970;2023-04-21T03:59:45;99436.41;;;10.34;92.59
21086;BME280;34247;50.064;19.970;2023-04-21T04:01:01;99446.84;;;10.37;92.43
21086;BME280;34247;50.064;19.970;2023-04-21T04:02:05;99441.53;;;10.37;92.42
21086;BME280;34247;50.064;19.970;2023-04-21T04:03:14;99438.66;;;10.40;92.18
21086;BME280;34247;50.064;19.970;2023-04-21T04:04:25;99445.78;;;10.39;91.99
21086;BME280;34247;50.064;19.970;2023-04-21T04:05:29;99448.31;;;10.41;91.95
21086;BME280;34247;50.064;19.970;2023-04-21T04:06:33;99440.56;;;10.38;91.97
21086;BME280;34247;50.064;19.970;2023-04-21T04:07:38;99443.34;;;10.36;92.38
21086;BME280;34247;50.064;19.970;2023-04-21T04:08:41;99443.22;;;10.38;91.96
21086;BME280;34247;50.064;19.970;2023-04-21T04:09:45;99446.84;;;10.37;92.43
21086;BME280;34247;50.064;19.970;2023-04-21T04:10:49;99445.13;;;10.36;92.46
21086;BME280;34247;50.064;19.970;2023-04-21T04:11:53;99451.19;;;10.38;92.28
21086;BME280;34247;50.064;19.970;2023-04-21T04:13:06;99445.31;;;10.33;92.62
21086;BME280;34247;50.064;19.970;2023-04-21T04:14:13;99449.66;;;10.34;92.37
21086;BME280;34247;50.064;19.970;2023-04-21T04:15:21;99454.69;;;10.38;92.19
21086;BME280;34247;50.064;19.970;2023-04-21T04:16:27;99451.38;;;10.35;92.36
21086;BME280;34247;50.064;19.970;2023-04-21T04:17:33;99457.53;;;10.35;92.73
21086;BME280;34247;50.064;19.970;2023-04-21T04:18:40;99457.44;;;10.37;92.48
21086;BME280;34247;50.064;19.970;2023-04-21T04:19:49;99457.63;;;10.34;92.92
21086;BME280;34247;50.064;19.970;2023-04-21T04:20:54;99456.69;;;10.35;92.70
21086;BME280;34247;50.064;19.970;2023-04-21T04:22:02;99451.38;;;10.35;93.17
21086;BME280;34247;50.064;19.970;2023-04-21T04:23:09;99456.50;;;10.38;92.79
21086;BME280;34247;50.064;19.970;2023-04-21T04:24:18;99457.44;;;10.37;92.81
21086;BME280;34247;50.064;19.970;2023-04-21T04:25:25;99459.16;;;10.38;93.00
21086;BME280;34247;50.064;19.970;2023-04-21T04:26:32;99461.97;;;10.35;93.10
21086;BME280;34247;50.064;19.970;2023-04-21T04:27:42;99465.41;;;10.37;92.88
21086;BME280;34247;50.064;19.970;2023-04-21T04:28:52;99469.03;;;10.36;93.25
21086;BME280;34247;50.064;19.970;2023-04-21T04:30:02;99473.16;;;10.40;92.71
21086;BME280;34247;50.064;19.970;2023-04-21T04:31:08;99472.31;;;10.39;92.89
21086;BME280;34247;50.064;19.970;2023-04-21T04:32:13;99476.09;;;10.35;93.58
21086;BME280;34247;50.064;19.970;2023-04-21T04:33:24;99479.16;;;10.29;94.21
21086;BME280;34247;50.064;19.970;2023-04-21T04:34:28;99481.72;;;10.31;94.41
21086;BME280;34247;50.064;19.970;2023-04-21T04:35:35;99487.19;;;10.28;94.82
21086;BME280;34247;50.064;19.970;2023-04-21T04:36:40;99484.38;;;10.31;94.64
21086;BME280;34247;50.064;19.970;2023-04-21T04:37:52;99485.13;;;10.33;94.20
21086;BME280;34247;50.064;19.970;2023-04-21T04:39:04;99484.94;;;10.36;94.14
21086;BME280;34247;50.064;19.970;2023-04-21T04:40:15;99481.34;;;10.37;93.84
21086;BME280;34247;50.064;19.970;2023-04-21T04:41:25;99480.84;;;10.44;93.46
21086;BME280;34247;50.064;19.970;2023-04-21T04:42:34;99484.34;;;10.45;93.48
21086;BME280;34247;50.064;19.970;2023-04-21T04:43:46;99484.34;;;10.45;93.64
21086;BME280;34247;50.064;19.970;2023-04-21T04:44:57;99484.44;;;10.43;93.72
21086;BME280;34247;50.064;19.970;2023-04-21T04:46:16;99483.50;;;10.44;93.26
21086;BME280;34247;50.064;19.970;2023-04-21T04:47:24;99487.38;;;10.39;93.92
21086;BME280;34247;50.064;19.970;2023-04-21T04:48:43;99481.56;;;10.46;93.50
21086;BME280;34247;50.064;19.970;2023-04-21T04:49:48;99477.13;;;10.47;93.11
21086;BME280;34247;50.064;19.970;2023-04-21T04:50:54;99479.88;;;10.45;93.62
21086;BME280;34247;50.064;19.970;2023-04-21T04:51:59;99477.22;;;10.45;93.82
21086;BME280;34247;50.064;19.970;2023-04-21T04:53:04;99480.34;;;10.52;93.27
21086;BME280;34247;50.064;19.970;2023-04-21T04:54:08;99483.75;;;10.54;92.94
21086;BME280;34247;50.064;19.970;2023-04-21T04:55:12;99472.72;;;10.60;92.99
21086;BME280;34247;50.064;19.970;2023-04-21T04:56:18;99483.34;;;10.60;93.06
21086;BME280;34247;50.064;19.970;2023-04-21T04:57:23;99478.03;;;10.60;92.87
21086;BME280;34247;50.064;19.970;2023-04-21T04:58:27;99480.59;;;10.62;92.83
21086;BME280;34247;50.064;19.970;2023-04-21T04:59:33;99489.94;;;10.67;93.02
21086;BME280;34247;50.064;19.970;2023-04-21T05:00:42;99486.06;;;10.73;92.73
21086;BME280;34247;50.064;19.970;2023-04-21T05:01:47;99486.78;;;10.75;92.57
21086;BME280;34247;50.064;19.970;2023-04-21T05:02:52;99489.22;;;10.78;92.47
21086;BME280;34247;50.064;19.970;2023-04-21T05:03:59;99488.94;;;10.83;92.26
21086;BME280;34247;50.064;19.970;2023-04-21T05:05:10;99490.53;;;10.85;91.93
21086;BME280;34247;50.064;19.970;2023-04-21T05:06:24;99490.25;;;10.90;91.97
21086;BME280;34247;50.064;19.970;2023-04-21T05:07:29;99493.44;;;10.95;91.67
21086;BME280;34247;50.064;19.970;2023-04-21T05:08:37;99494.31;;;10.95;91.50
21086;BME280;34247;50.064;19.970;2023-04-21T05:09:45;99488.03;;;10.96;91.58
21086;BME280;34247;50.064;19.970;2023-04-21T05:10:54;99494.09;;;10.98;91.13
21086;BME280;34247;50.064;19.970;2023-04-21T05:12:02;99497.59;;;10.99;91.48
21086;BME280;34247;50.064;19.970;2023-04-21T05:13:10;99489.84;;;10.96;91.29
21086;BME280;34247;50.064;19.970;2023-04-21T05:14:14;99498.00;;;10.93;91.24
21086;BME280;34247;50.064;19.970;2023-04-21T05:15:25;99500.81;;;11.04;91.19
21086;BME280;34247;50.064;19.970;2023-04-21T05:16:30;99496.34;;;11.04;91.10
21086;BME280;34247;50.064;19.970;2023-04-21T05:17:38;99496.88;;;11.10;90.88
21086;BME280;34247;50.064;19.970;2023-04-21T05:18:42;99499.03;;;11.17;90.83
21086;BME280;34247;50.064;19.970;2023-04-21T05:19:48;99503.28;;;11.20;90.28
21086;BME280;34247;50.064;19.970;2023-04-21T05:20:53;99494.78;;;11.27;90.36
21086;BME280;34247;50.064;19.970;2023-04-21T05:21:59;99496.28;;;11.31;89.72
21086;BME280;34247;50.064;19.970;2023-04-21T05:23:11;99490.34;;;11.41;89.76
21086;BME280;34247;50.064;19.970;2023-04-21T05:24:16;99486.41;;;11.46;89.27
21086;BME280;34247;50.064;19.970;2023-04-21T05:25:38;99485.97;;;11.65;88.83
21086;BME280;34247;50.064;19.970;2023-04-21T05:26:44;99487.78;;;11.77;87.91
21086;BME280;34247;50.064;19.970;2023-04-21T05:27:49;99484.75;;;11.96;87.82
21086;BME280;34247;50.064;19.970;2023-04-21T05:28:56;99482.88;;;12.09;85.92
21086;BME280;34247;50.064;19.970;2023-04-21T05:30:01;99482.84;;;12.22;84.52
21086;BME280;34247;50.064;19.970;2023-04-21T05:31:06;99481.84;;;12.49;85.55
21086;BME280;34247;50.064;19.970;2023-04-21T05:32:13;99488.47;;;12.67;83.26
21086;BME280;34247;50.064;19.970;2023-04-21T05:33:19;99486.59;;;12.80;82.36
21086;BME280;34247;50.064;19.970;2023-04-21T05:34:30;99486.81;;;13.01;80.93
21086;BME280;34247;50.064;19.970;2023-04-21T05:35:35;99484.75;;;13.29;81.42
21086;BME280;34247;50.064;19.970;2023-04-21T05:36:41;99490.28;;;13.49;79.89
21086;BME280;34247;50.064;19.970;2023-04-21T05:37:45;99494.06;;;13.69;78.80
21086;BME280;34247;50.064;19.970;2023-04-21T05:38:49;99492.13;;;13.83;78.59
21086;BME280;34247;50.064;19.970;2023-04-21T05:39:53;99485.84;;;14.06;77.82
21086;BME280;34247;50.064;19.970;2023-04-21T05:40:56;99486.66;;;14.18;75.25
21086;BME280;34247;50.064;19.970;2023-04-21T05:42:00;99484.34;;;14.35;74.83
21086;BME280;34247;50.064;19.970;2023-04-21T05:43:05;99485.53;;;14.54;75.00
21086;BME280;34247;50.064;19.970;2023-04-21T05:44:08;99483.22;;;14.60;71.20
21086;BME280;34247;50.064;19.970;2023-04-21T05:45:12;99488.91;;;14.78;73.32
21086;BME280;34247;50.064;19.970;2023-04-21T05:46:16;99483.19;;;15.04;73.40
21086;BME280;34247;50.064;19.970;2023-04-21T05:47:20;99485.38;;;15.10;70.66
21086;BME280;34247;50.064;19.970;2023-04-21T05:48:24;99482.84;;;15.29;70.90
21086;BME280;34247;50.064;19.970;2023-04-21T05:49:28;99479.25;;;15.40;69.82
21086;BME280;34247;50.064;19.970;2023-04-21T05:50:38;99487.22;;;15.51;68.41
21086;BME280;34247;50.064;19.970;2023-04-21T05:51:47;99485.78;;;15.68;68.25
21086;BME280;34247;50.064;19.970;2023-04-21T05:52:55;99487.66;;;15.77;68.02